sensor_id;sensor_type;location;lat;lon;timestamp;temperature;humidity
19340;HTU21D;9804;52.350;6.684;2023-04-15T00:01:03;10.48;-6.00
19340;HTU21D;9804;52.350;6.684;2023-04-15T00:03:30;10.44;-6.00
19340;HTU21D;9804;52.350;6.684;2023-04-15T00:05:57;10.52;-6.00
19340;HTU21D;9804;52.350;6.684;2023-04-15T00:08:22;10.55;-6.00
19340;HTU21D;9804;52.350;6.684;2023-04-15T00:10:48;10.53;-6.00
19340;HTU21D;9804;52.350;6.684;2023-04-15T00:13:13;10.50;-6.00
19340;HTU21D;9804;52.350;6.684;2023-04-15T00:15:39;10.37;-6.00
19340;HTU21D;9804;52.350;6.684;2023-04-15T00:18:05;10.42;-6.00
19340;HTU21D;9804;52.350;6.684;2023-04-15T00:20:32;10.44;-6.00
19340;HTU21D;9804;52.350;6.684;2023-04-15T00:22:58;10.36;-6.00
19340;HTU21D;9804;52.350;6.684;2023-04-15T00:25:24;10.11;-6.00
19340;HTU21D;9804;52.350;6.684;2023-04-15T00:27:50;10.14;-6.00
19340;HTU21D;9804;52.350;6.684;2023-04-15T00:30:15;10.19;-6.00
19340;HTU21D;9804;52.350;6.684;2023-04-15T00:32:41;10.23;-6.00
19340;HTU21D;9804;52.350;6.684;2023-04-15T00:35:06;10.25;-6.00
19340;HTU21D;9804;52.350;6.684;2023-04-15T00:37:33;10.12;-6.00
19340;HTU21D;9804;52.350;6.684;2023-04-15T00:39:59;10.10;-6.00
19340;HTU21D;9804;52.350;6.684;2023-04-15T00:42:25;10.12;-6.00
19340;HTU21D;9804;52.350;6.684;2023-04-15T00:44:50;10.09;-6.00
19340;HTU21D;9804;52.350;6.684;2023-04-15T00:47:17;9.93;-6.00
19340;HTU21D;9804;52.350;6.684;2023-04-15T00:49:43;9.90;-6.00
19340;HTU21D;9804;52.350;6.684;2023-04-15T00:52:08;9.85;-6.00
19340;HTU21D;9804;52.350;6.684;2023-04-15T00:54:34;9.89;-6.00
19340;HTU21D;9804;52.350;6.684;2023-04-15T00:56:59;9.88;-6.00
19340;HTU21D;9804;52.350;6.684;2023-04-15T00:59:25;9.79;-6.00
19340;HTU21D;9804;52.350;6.684;2023-04-15T01:01:52;9.70;-6.00
19340;HTU21D;9804;52.350;6.684;2023-04-15T01:04:17;9.68;-6.00
19340;HTU21D;9804;52.350;6.684;2023-04-15T01:06:42;9.85;-6.00
19340;HTU21D;9804;52.350;6.684;2023-04-15T01:09:08;9.80;-6.00
19340;HTU21D;9804;52.350;6.684;2023-04-15T01:11:34;9.79;-6.00
19340;HTU21D;9804;52.350;6.684;2023-04-15T01:14:00;9.50;-6.00
19340;HTU21D;9804;52.350;6.684;2023-04-15T01:16:25;9.49;-6.00
19340;HTU21D;9804;52.350;6.684;2023-04-15T01:18:52;9.48;-6.00
19340;HTU21D;9804;52.350;6.684;2023-04-15T01:21:18;9.46;-6.00
19340;HTU21D;9804;52.350;6.684;2023-04-15T01:23:45;9.44;-6.00
19340;HTU21D;9804;52.350;6.684;2023-04-15T01:26:12;9.41;-6.00
19340;HTU21D;9804;52.350;6.684;2023-04-15T01:28:37;9.56;-6.00
19340;HTU21D;9804;52.350;6.684;2023-04-15T01:31:11;9.51;-6.00
19340;HTU21D;9804;52.350;6.684;2023-04-15T01:33:38;9.48;-6.00
19340;HTU21D;9804;52.350;6.684;2023-04-15T01:36:05;9.42;-6.00
19340;HTU21D;9804;52.350;6.684;2023-04-15T01:38:31;9.41;-6.00
19340;HTU21D;9804;52.350;6.684;2023-04-15T01:40:57;9.44;-6.00
19340;HTU21D;9804;52.350;6.684;2023-04-15T01:43:24;9.30;-6.00
19340;HTU21D;9804;52.350;6.684;2023-04-15T01:45:49;9.21;-6.00
19340;HTU21D;9804;52.350;6.684;2023-04-15T01:48:14;9.17;-6.00
19340;HTU21D;9804;52.350;6.684;2023-04-15T01:50:41;9.12;-6.00
19340;HTU21D;9804;52.350;6.684;2023-04-15T01:53:07;9.12;-6.00
19340;HTU21D;9804;52.350;6.684;2023-04-15T01:55:32;9.10;-6.00
19340;HTU21D;9804;52.350;6.684;2023-04-15T01:57:58;9.02;-6.00
19340;HTU21D;9804;52.350;6.684;2023-04-15T02:00:23;9.27;-6.00
19340;HTU21D;9804;52.350;6.684;2023-04-15T02:02:49;9.26;-6.00
19340;HTU21D;9804;52.350;6.684;2023-04-15T02:05:14;9.18;-6.00
19340;HTU21D;9804;52.350;6.684;2023-04-15T02:07:41;9.25;-6.00
19340;HTU21D;9804;52.350;6.684;2023-04-15T02:10:08;9.19;-6.00
19340;HTU21D;9804;52.350;6.684;2023-04-15T02:12:33;9.21;-6.00
19340;HTU21D;9804;52.350;6.684;2023-04-15T02:14:58;9.12;-6.00
19340;HTU21D;9804;52.350;6.684;2023-04-15T02:17:24;9.15;-6.00
19340;HTU21D;9804;52.350;6.684;2023-04-15T02:19:50;9.15;-6.00
19340;HTU21D;9804;52.350;6.684;2023-04-15T02:22:15;9.05;-6.00
19340;HTU21D;9804;52.350;6.684;2023-04-15T02:24:43;9.00;-6.00
19340;HTU21D;9804;52.350;6.684;2023-04-15T02:27:10;9.14;-6.00
19340;HTU21D;9804;52.350;6.684;2023-04-15T02:29:35;9.04;-6.00
19340;HTU21D;9804;52.350;6.684;2023-04-15T02:32:01;8.95;-6.00
19340;HTU21D;9804;52.350;6.684;2023-04-15T02:34:26;8.85;-6.00
19340;HTU21D;9804;52.350;6.684;2023-04-15T02:36:51;8.79;-6.00
19340;HTU21D;9804;52.350;6.684;2023-04-15T02:39:21;8.72;-6.00
19340;HTU21D;9804;52.350;6.684;2023-04-15T02:41:47;8.58;-6.00
19340;HTU21D;9804;52.350;6.684;2023-04-15T02:44:16;8.56;-6.00
19340;HTU21D;9804;52.350;6.684;2023-04-15T02:46:44;8.58;-6.00
19340;HTU21D;9804;52.350;6.684;2023-04-15T02:49:13;8.53;-6.00
19340;HTU21D;9804;52.350;6.684;2023-04-15T02:51:38;8.48;-6.00
19340;HTU21D;9804;52.350;6.684;2023-04-15T02:54:04;8.38;-6.00
19340;HTU21D;9804;52.350;6.684;2023-04-15T02:56:29;8.32;-6.00
19340;HTU21D;9804;52.350;6.684;2023-04-15T02:58:55;8.28;-6.00
19340;HTU21D;9804;52.350;6.684;2023-04-15T03:01:20;8.27;-6.00
19340;HTU21D;9804;52.350;6.684;2023-04-15T03:03:46;8.30;-6.00
19340;HTU21D;9804;52.350;6.684;2023-04-15T03:06:11;8.31;-6.00
19340;HTU21D;9804;52.350;6.684;2023-04-15T03:08:37;8.21;-6.00
19340;HTU21D;9804;52.350;6.684;2023-04-15T03:11:03;8.14;-6.00
19340;HTU21D;9804;52.350;6.684;2023-04-15T03:13:28;8.12;-6.00
19340;HTU21D;9804;52.350;6.684;2023-04-15T03:15:54;8.06;-6.00
19340;HTU21D;9804;52.350;6.684;2023-04-15T03:18:19;8.03;-6.00
19340;HTU21D;9804;52.350;6.684;2023-04-15T03:20:44;7.98;-6.00
19340;HTU21D;9804;52.350;6.684;2023-04-15T03:23:10;7.91;-6.00
19340;HTU21D;9804;52.350;6.684;2023-04-15T03:25:35;7.89;-6.00
19340;HTU21D;9804;52.350;6.684;2023-04-15T03:28:02;7.78;-6.00
19340;HTU21D;9804;52.350;6.684;2023-04-15T03:30:28;7.85;-6.00
19340;HTU21D;9804;52.350;6.684;2023-04-15T03:32:53;7.75;-6.00
19340;HTU21D;9804;52.350;6.684;2023-04-15T03:35:18;7.63;-6.00
19340;HTU21D;9804;52.350;6.684;2023-04-15T03:37:44;7.58;-6.00
19340;HTU21D;9804;52.350;6.684;2023-04-15T03:40:10;7.55;-6.00
19340;HTU21D;9804;52.350;6.684;2023-04-15T03:42:35;7.45;-6.00
19340;HTU21D;9804;52.350;6.684;2023-04-15T03:45:01;7.47;-6.00
19340;HTU21D;9804;52.350;6.684;2023-04-15T03:47:26;7.42;-6.00
19340;HTU21D;9804;52.350;6.684;2023-04-15T03:49:51;7.43;-6.00
19340;HTU21D;9804;52.350;6.684;2023-04-15T03:52:17;7.41;-6.00
19340;HTU21D;9804;52.350;6.684;2023-04-15T03:54:42;7.37;-6.00
19340;HTU21D;9804;52.350;6.684;2023-04-15T03:57:07;7.38;-6.00
19340;HTU21D;9804;52.350;6.684;2023-04-15T03:59:33;7.40;-6.00
19340;HTU21D;9804;52.350;6.684;2023-04-15T04:01:58;7.40;-6.00
19340;HTU21D;9804;52.350;6.684;2023-04-15T04:04:23;7.33;-6.00
19340;HTU21D;9804;52.350;6.684;2023-04-15T04:06:49;7.31;-6.00
19340;HTU21D;9804;52.350;6.684;2023-04-15T04:09:14;7.24;-6.00
19340;HTU21D;9804;52.350;6.684;2023-04-15T04:11:40;7.18;-6.00
19340;HTU21D;9804;52.350;6.684;2023-04-15T04:14:05;7.17;-6.00
19340;HTU21D;9804;52.350;6.684;2023-04-15T04:16:31;7.15;-6.00
19340;HTU21D;9804;52.350;6.684;2023-04-15T04:18:56;7.13;-6.00
19340;HTU21D;9804;52.350;6.684;2023-04-15T04:21:22;7.02;-6.00
19340;HTU21D;9804;52.350;6.684;2023-04-15T04:23:47;7.03;-6.00
19340;HTU21D;9804;52.350;6.684;2023-04-15T04:26:12;7.01;-6.00
19340;HTU21D;9804;52.350;6.684;2023-04-15T04:28:38;6.99;-6.00
19340;HTU21D;9804;52.350;6.684;2023-04-15T04:31:05;6.99;-6.00
19340;HTU21D;9804;52.350;6.684;2023-04-15T04:33:31;7.00;-6.00
19340;HTU21D;9804;52.350;6.684;2023-04-15T04:35:57;7.00;-6.00
19340;HTU21D;9804;52.350;6.684;2023-04-15T04:38:22;7.04;-6.00
19340;HTU21D;9804;52.350;6.684;2023-04-15T04:40:48;7.05;-6.00
19340;HTU21D;9804;52.350;6.684;2023-04-15T04:43:13;6.99;-6.00
19340;HTU21D;9804;52.350;6.684;2023-04-15T04:45:40;6.97;-6.00
19340;HTU21D;9804;52.350;6.684;2023-04-15T04:48:06;7.09;-6.00
19340;HTU21D;9804;52.350;6.684;2023-04-15T04:50:33;7.11;-6.00
19340;HTU21D;9804;52.350;6.684;2023-04-15T04:52:59;7.35;-6.00
19340;HTU21D;9804;52.350;6.684;2023-04-15T04:55:25;7.40;-6.00
19340;HTU21D;9804;52.350;6.684;2023-04-15T04:57:51;7.43;-6.00
19340;HTU21D;9804;52.350;6.684;2023-04-15T05:00:16;7.49;-6.00
19340;HTU21D;9804;52.350;6.684;2023-04-15T05:02:42;7.44;-6.00
19340;HTU21D;9804;52.350;6.684;2023-04-15T05:05:08;7.60;-6.00
19340;HTU21D;9804;52.350;6.684;2023-04-15T05:07:34;7.85;-6.00
19340;HTU21D;9804;52.350;6.684;2023-04-15T05:09:59;7.77;-6.00
19340;HTU21D;9804;52.350;6.684;2023-04-15T05:12:25;7.92;-6.00
19340;HTU21D;9804;52.350;6.684;2023-04-15T05:14:50;7.88;-6.00
19340;HTU21D;9804;52.350;6.684;2023-04-15T05:17:16;8.06;-6.00
19340;HTU21D;9804;52.350;6.684;2023-04-15T05:19:41;8.07;-6.00
19340;HTU21D;9804;52.350;6.684;2023-04-15T05:22:07;7.99;-6.00
19340;HTU21D;9804;52.350;6.684;2023-04-15T05:24:32;7.93;-6.00
19340;HTU21D;9804;52.350;6.684;2023-04-15T05:26:57;7.94;-6.00
19340;HTU21D;9804;52.350;6.684;2023-04-15T05:29:23;8.06;-6.00
19340;HTU21D;9804;52.350;6.684;2023-04-15T05:31:48;8.03;-6.00
19340;HTU21D;9804;52.350;6.684;2023-04-15T05:34:14;8.07;-6.00
19340;HTU21D;9804;52.350;6.684;2023-04-15T05:36:40;8.04;-6.00
19340;HTU21D;9804;52.350;6.684;2023-04-15T05:39:06;8.20;-6.00
19340;HTU21D;9804;52.350;6.684;2023-04-15T05:41:31;8.14;-6.00
19340;HTU21D;9804;52.350;6.684;2023-04-15T05:43:57;8.21;-6.00
19340;HTU21D;9804;52.350;6.684;2023-04-15T05:46:22;8.28;-6.00
19340;HTU21D;9804;52.350;6.684;2023-04-15T05:48:48;8.18;-6.00
19340;HTU21D;9804;52.350;6.684;2023-04-15T05:51:13;8.36;-6.00
19340;HTU21D;9804;52.350;6.684;2023-04-15T05:53:39;8.27;-6.00
19340;HTU21D;9804;52.350;6.684;2023-04-15T05:56:06;8.30;-6.00
19340;HTU21D;9804;52.350;6.684;2023-04-15T05:58:31;8.32;-6.00
19340;HTU21D;9804;52.350;6.684;2023-04-15T06:00:57;8.47;-6.00
19340;HTU21D;9804;52.350;6.684;2023-04-15T06:03:22;8.61;-6.00
19340;HTU21D;9804;52.350;6.684;2023-04-15T06:05:47;8.62;-6.00
19340;HTU21D;9804;52.350;6.684;2023-04-15T06:08:13;8.74;-6.00
19340;HTU21D;9804;52.350;6.684;2023-04-15T06:10:38;8.71;-6.00
19340;HTU21D;9804;52.350;6.684;2023-04-15T06:13:04;8.89;-6.00
19340;HTU21D;9804;52.350;6.684;2023-04-15T06:15:30;8.98;-6.00
19340;HTU21D;9804;52.350;6.684;2023-04-15T06:17:56;9.14;-6.00
19340;HTU21D;9804;52.350;6.684;2023-04-15T06:20:21;9.27;-6.00
19340;HTU21D;9804;52.350;6.684;2023-04-15T06:22:47;9.19;-6.00
19340;HTU21D;9804;52.350;6.684;2023-04-15T06:25:12;9.29;-6.00
19340;HTU21D;9804;52.350;6.684;2023-04-15T06:27:38;9.45;-6.00
19340;HTU21D;9804;52.350;6.684;2023-04-15T06:30:04;9.44;-6.00
19340;HTU21D;9804;52.350;6.684;2023-04-15T06:32:31;9.62;-6.00
19340;HTU21D;9804;52.350;6.684;2023-04-15T06:34:56;9.47;-6.00
19340;HTU21D;9804;52.350;6.684;2023-04-15T06:37:22;9.71;-6.00
19340;HTU21D;9804;52.350;6.684;2023-04-15T06:39:47;9.90;-6.00
19340;HTU21D;9804;52.350;6.684;2023-04-15T06:42:13;10.03;-6.00
19340;HTU21D;9804;52.350;6.684;2023-04-15T06:44:38;10.12;-6.00
19340;HTU21D;9804;52.350;6.684;2023-04-15T06:47:04;10.16;-6.00
19340;HTU21D;9804;52.350;6.684;2023-04-15T06:49:29;10.16;-6.00
19340;HTU21D;9804;52.350;6.684;2023-04-15T06:51:55;10.26;-6.00
19340;HTU21D;9804;52.350;6.684;2023-04-15T06:54:20;10.18;-6.00
19340;HTU21D;9804;52.350;6.684;2023-04-15T06:56:46;10.43;-6.00
19340;HTU21D;9804;52.350;6.684;2023-04-15T06:59:12;10.52;-6.00
19340;HTU21D;9804;52.350;6.684;2023-04-15T07:01:39;10.46;-6.00
19340;HTU21D;9804;52.350;6.684;2023-04-15T07:04:04;10.69;-6.00
19340;HTU21D;9804;52.350;6.684;2023-04-15T07:06:30;10.67;-6.00
19340;HTU21D;9804;52.350;6.684;2023-04-15T07:08:57;10.74;-6.00
19340;HTU21D;9804;52.350;6.684;2023-04-15T07:11:22;10.62;-6.00
19340;HTU21D;9804;52.350;6.684;2023-04-15T07:13:47;10.71;-6.00
19340;HTU21D;9804;52.350;6.684;2023-04-15T07:16:13;10.77;-6.00
19340;HTU21D;9804;52.350;6.684;2023-04-15T07:18:38;10.77;-6.00
19340;HTU21D;9804;52.350;6.684;2023-04-15T07:21:04;11.00;-6.00
19340;HTU21D;9804;52.350;6.684;2023-04-15T07:23:29;11.03;-6.00
19340;HTU21D;9804;52.350;6.684;2023-04-15T07:25:55;11.02;-6.00
19340;HTU21D;9804;52.350;6.684;2023-04-15T07:28:21;11.22;-6.00
19340;HTU21D;9804;52.350;6.684;2023-04-15T07:30:47;11.32;-6.00
19340;HTU21D;9804;52.350;6.684;2023-04-15T07:33:12;10.63;-6.00
19340;HTU21D;9804;52.350;6.684;2023-04-15T07:35:38;10.38;-6.00
19340;HTU21D;9804;52.350;6.684;2023-04-15T07:38:03;10.49;-6.00
19340;HTU21D;9804;52.350;6.684;2023-04-15T07:40:29;10.59;-6.00
19340;HTU21D;9804;52.350;6.684;2023-04-15T07:42:57;10.67;-6.00
19340;HTU21D;9804;52.350;6.684;2023-04-15T07:45:23;10.66;-6.00
19340;HTU21D;9804;52.350;6.684;2023-04-15T07:47:48;10.71;-6.00
19340;HTU21D;9804;52.350;6.684;2023-04-15T07:50:15;10.95;-6.00
19340;HTU21D;9804;52.350;6.684;2023-04-15T07:52:41;11.26;-6.00
19340;HTU21D;9804;52.350;6.684;2023-04-15T07:55:07;10.95;-6.00
19340;HTU21D;9804;52.350;6.684;2023-04-15T07:57:34;11.41;-6.00
19340;HTU21D;9804;52.350;6.684;2023-04-15T08:00:00;11.29;-6.00
19340;HTU21D;9804;52.350;6.684;2023-04-15T08:02:26;11.27;-6.00
19340;HTU21D;9804;52.350;6.684;2023-04-15T08:04:51;11.24;-6.00
19340;HTU21D;9804;52.350;6.684;2023-04-15T08:07:18;11.32;-6.00
19340;HTU21D;9804;52.350;6.684;2023-04-15T08:09:43;11.08;-6.00
19340;HTU21D;9804;52.350;6.684;2023-04-15T08:12:08;11.20;-6.00
19340;HTU21D;9804;52.350;6.684;2023-04-15T08:14:37;11.19;-6.00
19340;HTU21D;9804;52.350;6.684;2023-04-15T08:17:03;11.34;-6.00
19340;HTU21D;9804;52.350;6.684;2023-04-15T08:19:29;11.62;-6.00
19340;HTU21D;9804;52.350;6.684;2023-04-15T08:21:54;11.63;-6.00
19340;HTU21D;9804;52.350;6.684;2023-04-15T08:24:20;11.83;-6.00
19340;HTU21D;9804;52.350;6.684;2023-04-15T08:26:45;12.07;-6.00
19340;HTU21D;9804;52.350;6.684;2023-04-15T08:29:11;11.81;-6.00
19340;HTU21D;9804;52.350;6.684;2023-04-15T08:31:36;11.94;-6.00
19340;HTU21D;9804;52.350;6.684;2023-04-15T08:34:02;12.00;-6.00
19340;HTU21D;9804;52.350;6.684;2023-04-15T08:36:28;12.03;-6.00
19340;HTU21D;9804;52.350;6.684;2023-04-15T08:38:53;12.15;-6.00
19340;HTU21D;9804;52.350;6.684;2023-04-15T08:41:21;12.03;-6.00
19340;HTU21D;9804;52.350;6.684;2023-04-15T08:44:02;12.43;-6.00
19340;HTU21D;9804;52.350;6.684;2023-04-15T08:46:29;11.98;-6.00
19340;HTU21D;9804;52.350;6.684;2023-04-15T08:48:56;11.92;-6.00
19340;HTU21D;9804;52.350;6.684;2023-04-15T08:51:23;12.05;-6.00
19340;HTU21D;9804;52.350;6.684;2023-04-15T08:53:48;12.29;-6.00
19340;HTU21D;9804;52.350;6.684;2023-04-15T08:56:15;12.45;-6.00
19340;HTU21D;9804;52.350;6.684;2023-04-15T08:58:43;12.64;-6.00
19340;HTU21D;9804;52.350;6.684;2023-04-15T09:01:10;12.51;-6.00
19340;HTU21D;9804;52.350;6.684;2023-04-15T09:03:37;12.74;-6.00
19340;HTU21D;9804;52.350;6.684;2023-04-15T09:06:03;13.08;-6.00
19340;HTU21D;9804;52.350;6.684;2023-04-15T09:08:30;12.89;-6.00
19340;HTU21D;9804;52.350;6.684;2023-04-15T09:10:55;13.24;-6.00
19340;HTU21D;9804;52.350;6.684;2023-04-15T09:13:21;12.92;-6.00
19340;HTU21D;9804;52.350;6.684;2023-04-15T09:15:47;12.89;-6.00
19340;HTU21D;9804;52.350;6.684;2023-04-15T09:18:17;12.47;-6.00
19340;HTU21D;9804;52.350;6.684;2023-04-15T09:20:52;12.65;-6.00
19340;HTU21D;9804;52.350;6.684;2023-04-15T09:23:17;12.67;-6.00
19340;HTU21D;9804;52.350;6.684;2023-04-15T09:25:43;12.96;-6.00
19340;HTU21D;9804;52.350;6.684;2023-04-15T09:28:09;13.14;-6.00
19340;HTU21D;9804;52.350;6.684;2023-04-15T09:30:35;13.21;-6.00
19340;HTU21D;9804;52.350;6.684;2023-04-15T09:33:02;13.23;-6.00
19340;HTU21D;9804;52.350;6.684;2023-04-15T09:35:33;13.09;-6.00
19340;HTU21D;9804;52.350;6.684;2023-04-15T09:38:06;13.19;-6.00
19340;HTU21D;9804;52.350;6.684;2023-04-15T09:40:39;13.36;-6.00
19340;HTU21D;9804;52.350;6.684;2023-04-15T09:43:06;13.26;-6.00
19340;HTU21D;9804;52.350;6.684;2023-04-15T09:45:33;13.00;-6.00
19340;HTU21D;9804;52.350;6.684;2023-04-15T09:48:18;13.03;-6.00
19340;HTU21D;9804;52.350;6.684;2023-04-15T09:50:45;13.12;-6.00
19340;HTU21D;9804;52.350;6.684;2023-04-15T09:53:15;13.37;-6.00
19340;HTU21D;9804;52.350;6.684;2023-04-15T09:55:48;13.44;-6.00
19340;HTU21D;9804;52.350;6.684;2023-04-15T09:58:21;13.40;-6.00
19340;HTU21D;9804;52.350;6.684;2023-04-15T10:00:48;13.40;-6.00
19340;HTU21D;9804;52.350;6.684;2023-04-15T10:03:18;13.54;-6.00
19340;HTU21D;9804;52.350;6.684;2023-04-15T10:05:46;13.03;-6.00
19340;HTU21D;9804;52.350;6.684;2023-04-15T10:08:12;12.90;-6.00
19340;HTU21D;9804;52.350;6.684;2023-04-15T10:10:38;12.78;-6.00
19340;HTU21D;9804;52.350;6.684;2023-04-15T10:13:04;12.76;-6.00
19340;HTU21D;9804;52.350;6.684;2023-04-15T10:15:31;12.53;-6.00
19340;HTU21D;9804;52.350;6.684;2023-04-15T10:17:59;12.47;-6.00
19340;HTU21D;9804;52.350;6.684;2023-04-15T10:20:25;12.73;-6.00
19340;HTU21D;9804;52.350;6.684;2023-04-15T10:22:52;13.06;-6.00
19340;HTU21D;9804;52.350;6.684;2023-04-15T10:25:17;13.32;-6.00
19340;HTU21D;9804;52.350;6.684;2023-04-15T10:27:44;12.77;-6.00
19340;HTU21D;9804;52.350;6.684;2023-04-15T10:30:09;13.05;-6.00
19340;HTU21D;9804;52.350;6.684;2023-04-15T10:32:36;12.77;-6.00
19340;HTU21D;9804;52.350;6.684;2023-04-15T10:35:03;12.55;-6.00
19340;HTU21D;9804;52.350;6.684;2023-04-15T10:37:37;12.85;-6.00
19340;HTU21D;9804;52.350;6.684;2023-04-15T10:40:26;12.88;-6.00
19340;HTU21D;9804;52.350;6.684;2023-04-15T10:42:55;12.89;-6.00
19340;HTU21D;9804;52.350;6.684;2023-04-15T10:45:20;13.33;-6.00
19340;HTU21D;9804;52.350;6.684;2023-04-15T10:47:51;13.53;-6.00
19340;HTU21D;9804;52.350;6.684;2023-04-15T10:50:18;13.20;-6.00
19340;HTU21D;9804;52.350;6.684;2023-04-15T10:52:43;13.44;-6.00
19340;HTU21D;9804;52.350;6.684;2023-04-15T10:57:37;13.14;-6.00
19340;HTU21D;9804;52.350;6.684;2023-04-15T11:00:09;13.12;-6.00
19340;HTU21D;9804;52.350;6.684;2023-04-15T11:02:53;13.32;-6.00
19340;HTU21D;9804;52.350;6.684;2023-04-15T11:05:20;13.43;-6.00
19340;HTU21D;9804;52.350;6.684;2023-04-15T11:07:47;13.09;-6.00
19340;HTU21D;9804;52.350;6.684;2023-04-15T11:12:39;13.46;-6.00
19340;HTU21D;9804;52.350;6.684;2023-04-15T11:17:52;13.09;-6.00
19340;HTU21D;9804;52.350;6.684;2023-04-15T11:20:17;13.65;-6.00
19340;HTU21D;9804;52.350;6.684;2023-04-15T11:22:47;13.43;-6.00
19340;HTU21D;9804;52.350;6.684;2023-04-15T11:25:27;13.20;-6.00
19340;HTU21D;9804;52.350;6.684;2023-04-15T11:27:53;13.39;-6.00
19340;HTU21D;9804;52.350;6.684;2023-04-15T11:30:21;13.19;-6.00
19340;HTU21D;9804;52.350;6.684;2023-04-15T11:32:50;13.36;-6.00
19340;HTU21D;9804;52.350;6.684;2023-04-15T11:35:16;13.46;-6.00
19340;HTU21D;9804;52.350;6.684;2023-04-15T11:37:45;13.30;-6.00
19340;HTU21D;9804;52.350;6.684;2023-04-15T11:40:11;13.63;-6.00
19340;HTU21D;9804;52.350;6.684;2023-04-15T11:42:37;13.91;-6.00
19340;HTU21D;9804;52.350;6.684;2023-04-15T11:45:07;13.15;-6.00
19340;HTU21D;9804;52.350;6.684;2023-04-15T11:47:37;13.26;-6.00
19340;HTU21D;9804;52.350;6.684;2023-04-15T11:50:19;13.52;-6.00
19340;HTU21D;9804;52.350;6.684;2023-04-15T11:52:55;13.59;-6.00
19340;HTU21D;9804;52.350;6.684;2023-04-15T11:55:22;13.14;-6.00
19340;HTU21D;9804;52.350;6.684;2023-04-15T11:58:15;13.45;-6.00
19340;HTU21D;9804;52.350;6.684;2023-04-15T12:00:52;13.66;-6.00
19340;HTU21D;9804;52.350;6.684;2023-04-15T12:03:24;13.49;-6.00
19340;HTU21D;9804;52.350;6.684;2023-04-15T12:13:54;13.60;-6.00
19340;HTU21D;9804;52.350;6.684;2023-04-15T12:16:21;13.62;-6.00
19340;HTU21D;9804;52.350;6.684;2023-04-15T12:18:55;13.55;-6.00
19340;HTU21D;9804;52.350;6.684;2023-04-15T12:21:21;13.67;-6.00
19340;HTU21D;9804;52.350;6.684;2023-04-15T12:23:52;13.39;-6.00
19340;HTU21D;9804;52.350;6.684;2023-04-15T12:26:25;13.44;-6.00
19340;HTU21D;9804;52.350;6.684;2023-04-15T12:28:55;13.49;-6.00
19340;HTU21D;9804;52.350;6.684;2023-04-15T12:31:23;13.38;-6.00
19340;HTU21D;9804;52.350;6.684;2023-04-15T12:33:49;13.55;-6.00
19340;HTU21D;9804;52.350;6.684;2023-04-15T12:36:15;13.24;-6.00
19340;HTU21D;9804;52.350;6.684;2023-04-15T12:38:40;13.78;-6.00
19340;HTU21D;9804;52.350;6.684;2023-04-15T12:41:06;13.71;-6.00
19340;HTU21D;9804;52.350;6.684;2023-04-15T12:43:31;13.74;-6.00
19340;HTU21D;9804;52.350;6.684;2023-04-15T12:45:56;13.70;-6.00
19340;HTU21D;9804;52.350;6.684;2023-04-15T12:48:22;13.78;-6.00
19340;HTU21D;9804;52.350;6.684;2023-04-15T12:50:47;13.92;-6.00
19340;HTU21D;9804;52.350;6.684;2023-04-15T12:53:13;13.85;-6.00
19340;HTU21D;9804;52.350;6.684;2023-04-15T12:55:38;13.62;-6.00
19340;HTU21D;9804;52.350;6.684;2023-04-15T12:58:03;13.81;-6.00
19340;HTU21D;9804;52.350;6.684;2023-04-15T13:00:29;13.76;-6.00
19340;HTU21D;9804;52.350;6.684;2023-04-15T13:02:54;13.68;-6.00
19340;HTU21D;9804;52.350;6.684;2023-04-15T13:05:29;13.63;-6.00
19340;HTU21D;9804;52.350;6.684;2023-04-15T13:07:54;13.63;-6.00
19340;HTU21D;9804;52.350;6.684;2023-04-15T13:10:19;13.53;-6.00
19340;HTU21D;9804;52.350;6.684;2023-04-15T13:12:48;13.53;-6.00
19340;HTU21D;9804;52.350;6.684;2023-04-15T13:15:14;13.17;-6.00
19340;HTU21D;9804;52.350;6.684;2023-04-15T13:17:43;13.40;-6.00
19340;HTU21D;9804;52.350;6.684;2023-04-15T13:20:09;13.49;-6.00
19340;HTU21D;9804;52.350;6.684;2023-04-15T13:22:34;13.46;-6.00
19340;HTU21D;9804;52.350;6.684;2023-04-15T13:25:00;13.65;-6.00
19340;HTU21D;9804;52.350;6.684;2023-04-15T13:27:25;13.47;-6.00
19340;HTU21D;9804;52.350;6.684;2023-04-15T13:29:51;13.46;-6.00
19340;HTU21D;9804;52.350;6.684;2023-04-15T13:32:17;13.18;-6.00
19340;HTU21D;9804;52.350;6.684;2023-04-15T13:34:42;13.45;-6.00
19340;HTU21D;9804;52.350;6.684;2023-04-15T13:37:08;13.44;-6.00
19340;HTU21D;9804;52.350;6.684;2023-04-15T13:39:34;13.25;-6.00
19340;HTU21D;9804;52.350;6.684;2023-04-15T13:41:59;13.17;-6.00
19340;HTU21D;9804;52.350;6.684;2023-04-15T13:44:25;13.81;-6.00
19340;HTU21D;9804;52.350;6.684;2023-04-15T13:46:51;13.49;-6.00
19340;HTU21D;9804;52.350;6.684;2023-04-15T13:49:16;13.44;-6.00
19340;HTU21D;9804;52.350;6.684;2023-04-15T13:51:41;13.25;-6.00
19340;HTU21D;9804;52.350;6.684;2023-04-15T13:54:07;13.31;-6.00
19340;HTU21D;9804;52.350;6.684;2023-04-15T13:56:32;13.67;-6.00
19340;HTU21D;9804;52.350;6.684;2023-04-15T13:58:58;13.60;-6.00
19340;HTU21D;9804;52.350;6.684;2023-04-15T14:01:26;13.47;-6.00
19340;HTU21D;9804;52.350;6.684;2023-04-15T14:03:51;13.30;-6.00
19340;HTU21D;9804;52.350;6.684;2023-04-15T14:06:17;13.05;-6.00
19340;HTU21D;9804;52.350;6.684;2023-04-15T14:08:42;13.37;-6.00
19340;HTU21D;9804;52.350;6.684;2023-04-15T14:11:08;12.93;-6.00
19340;HTU21D;9804;52.350;6.684;2023-04-15T14:13:33;12.96;-6.00
19340;HTU21D;9804;52.350;6.684;2023-04-15T14:15:59;13.09;-6.00
19340;HTU21D;9804;52.350;6.684;2023-04-15T14:18:25;13.37;-6.00
19340;HTU21D;9804;52.350;6.684;2023-04-15T14:20:50;13.02;-6.00
19340;HTU21D;9804;52.350;6.684;2023-04-15T14:23:15;13.47;-6.00
19340;HTU21D;9804;52.350;6.684;2023-04-15T14:25:41;13.38;-6.00
19340;HTU21D;9804;52.350;6.684;2023-04-15T14:28:06;12.95;-6.00
19340;HTU21D;9804;52.350;6.684;2023-04-15T14:30:32;12.99;-6.00
19340;HTU21D;9804;52.350;6.684;2023-04-15T14:32:57;12.93;-6.00
19340;HTU21D;9804;52.350;6.684;2023-04-15T14:35:22;13.00;-6.00
19340;HTU21D;9804;52.350;6.684;2023-04-15T14:37:51;12.73;-6.00
19340;HTU21D;9804;52.350;6.684;2023-04-15T14:40:17;12.46;-6.00
19340;HTU21D;9804;52.350;6.684;2023-04-15T14:42:43;12.72;-6.00
19340;HTU21D;9804;52.350;6.684;2023-04-15T14:45:09;12.90;-6.00
19340;HTU21D;9804;52.350;6.684;2023-04-15T14:47:34;12.84;-6.00
19340;HTU21D;9804;52.350;6.684;2023-04-15T14:49:59;12.73;-6.00
19340;HTU21D;9804;52.350;6.684;2023-04-15T14:52:25;12.64;-6.00
19340;HTU21D;9804;52.350;6.684;2023-04-15T14:54:50;12.79;-6.00
19340;HTU21D;9804;52.350;6.684;2023-04-15T14:57:15;12.82;-6.00
19340;HTU21D;9804;52.350;6.684;2023-04-15T14:59:41;12.64;-6.00
19340;HTU21D;9804;52.350;6.684;2023-04-15T15:02:07;12.81;-6.00
19340;HTU21D;9804;52.350;6.684;2023-04-15T15:04:33;12.63;-6.00
19340;HTU21D;9804;52.350;6.684;2023-04-15T15:07:00;12.62;-6.00
19340;HTU21D;9804;52.350;6.684;2023-04-15T15:09:25;12.61;-6.00
19340;HTU21D;9804;52.350;6.684;2023-04-15T15:11:50;12.44;-6.00
19340;HTU21D;9804;52.350;6.684;2023-04-15T15:14:16;12.59;-6.00
19340;HTU21D;9804;52.350;6.684;2023-04-15T15:16:41;12.64;-6.00
19340;HTU21D;9804;52.350;6.684;2023-04-15T15:19:07;12.30;-6.00
19340;HTU21D;9804;52.350;6.684;2023-04-15T15:21:32;12.16;-6.00
19340;HTU21D;9804;52.350;6.684;2023-04-15T15:23:57;12.21;-6.00
19340;HTU21D;9804;52.350;6.684;2023-04-15T15:26:23;12.06;-6.00
19340;HTU21D;9804;52.350;6.684;2023-04-15T15:28:48;11.77;-6.00
19340;HTU21D;9804;52.350;6.684;2023-04-15T15:31:15;11.93;-6.00
19340;HTU21D;9804;52.350;6.684;2023-04-15T15:33:40;12.07;-6.00
19340;HTU21D;9804;52.350;6.684;2023-04-15T15:36:06;11.99;-6.00
19340;HTU21D;9804;52.350;6.684;2023-04-15T15:38:31;11.69;-6.00
19340;HTU21D;9804;52.350;6.684;2023-04-15T15:40:57;11.70;-6.00
19340;HTU21D;9804;52.350;6.684;2023-04-15T15:43:22;11.75;-6.00
19340;HTU21D;9804;52.350;6.684;2023-04-15T15:45:47;11.76;-6.00
19340;HTU21D;9804;52.350;6.684;2023-04-15T15:48:16;11.75;-6.00